createdAt,value
2019-01-16T00:01:51.800Z,81.25
2019-01-16T00:07:06.486Z,81.26
2019-01-16T00:12:28.447Z,81.13
2019-01-16T00:17:43.567Z,81.02
2019-01-16T00:23:23.732Z,80.99
2019-01-16T00:28:41.352Z,80.79
2019-01-16T00:34:10.507Z,80.69
2019-01-16T00:39:41.984Z,80.56
2019-01-16T00:45:02.275Z,80.43
2019-01-16T00:50:36.695Z,80.31
2019-01-16T00:56:10.516Z,80.21
2019-01-16T01:01:31.031Z,80.04
2019-01-16T01:07:02.050Z,80.02
2019-01-16T01:12:39.647Z,79.99
2019-01-16T01:17:52.548Z,80.06
2019-01-16T01:23:03.480Z,80.16
2019-01-16T01:28:13.844Z,80.23
2019-01-16T01:33:23.455Z,80.27
2019-01-16T01:38:51.884Z,80.29
2019-01-16T01:44:19.431Z,80.33
2019-01-16T01:49:30.664Z,80.27
2019-01-16T01:54:41.247Z,80.08
2019-01-16T02:00:09.234Z,79.92
2019-01-16T02:05:28.412Z,79.82
2019-01-16T02:10:49.068Z,79.65
2019-01-16T02:15:59.813Z,79.45
2019-01-16T02:21:12.281Z,79.37
2019-01-16T02:26:29.254Z,79.29
2019-01-16T02:31:49.633Z,79.27
2019-01-16T02:37:23.632Z,79.23
2019-01-16T02:42:52.791Z,79.16
2019-01-16T02:48:14.917Z,79.17
2019-01-16T02:53:29.933Z,79.10
2019-01-16T02:58:50.553Z,79.14
2019-01-16T03:04:03.215Z,79.29
2019-01-16T03:09:15.305Z,79.32
2019-01-16T03:14:28.485Z,79.32
2019-01-16T03:19:48.978Z,79.34
2019-01-16T03:25:09.337Z,79.55
2019-01-16T03:30:24.944Z,79.87
2019-01-16T03:35:47.940Z,80.23
2019-01-16T03:41:07.787Z,80.58
2019-01-16T03:46:30.142Z,80.79
2019-01-16T03:51:50.846Z,80.81
2019-01-16T03:57:02.137Z,81.03
2019-01-16T04:02:27.875Z,81.06
2019-01-16T04:08:01.927Z,81.28
2019-01-16T04:13:21.764Z,81.23
2019-01-16T04:18:42.372Z,81.25
2019-01-16T04:24:12.937Z,81.07
2019-01-16T04:29:35.451Z,80.95
2019-01-16T04:35:15.784Z,80.79
2019-01-16T04:40:36.313Z,80.74
2019-01-16T04:46:03.891Z,80.32
2019-01-16T04:51:24.272Z,80.02
2019-01-16T04:56:44.796Z,79.82
2019-01-16T05:02:22.668Z,79.42
2019-01-16T05:07:42.986Z,79.15
2019-01-16T05:13:04.931Z,79.00
2019-01-16T05:18:25.265Z,78.59
2019-01-16T05:23:39.577Z,78.55
2019-01-16T05:29:01.489Z,78.21
2019-01-16T05:34:26.537Z,77.74
2019-01-16T05:39:54.504Z,77.46
2019-01-16T05:45:23.221Z,76.93
2019-01-16T05:50:51.165Z,76.41
2019-01-16T05:56:11.557Z,76.14
2019-01-16T06:01:32.227Z,75.95
2019-01-16T06:06:44.977Z,75.46
2019-01-16T06:12:05.891Z,75.11
2019-01-16T06:17:37.272Z,74.78
2019-01-16T06:22:57.782Z,74.63
2019-01-16T06:28:17.988Z,74.28
2019-01-16T06:33:39.928Z,73.98
2019-01-16T06:39:04.608Z,74.07
2019-01-16T06:44:32.737Z,74.12
2019-01-16T06:49:52.841Z,74.19
2019-01-16T06:55:01.891Z,74.40
2019-01-16T07:00:31.726Z,74.58
2019-01-16T07:05:55.784Z,74.64
2019-01-16T07:11:16.269Z,74.75
2019-01-16T07:16:35.939Z,74.67
2019-01-16T07:21:53.853Z,74.80
2019-01-16T07:27:14.592Z,74.95
2019-01-16T07:32:33.323Z,74.82
2019-01-16T07:37:45.838Z,75.02
2019-01-16T07:43:00.392Z,75.34
2019-01-16T07:48:22.863Z,75.55
2019-01-16T07:53:53.458Z,75.59
2019-01-16T07:59:10.054Z,75.92
2019-01-16T08:04:42.417Z,76.03
2019-01-16T08:10:12.380Z,75.90
2019-01-16T08:15:30.575Z,76.07
2019-01-16T08:20:55.263Z,76.55
2019-01-16T08:26:17.475Z,76.40
2019-01-16T08:31:47.688Z,76.32
2019-01-16T08:37:14.412Z,76.18
2019-01-16T08:42:38.017Z,75.97
2019-01-16T08:48:05.766Z,75.93
2019-01-16T08:53:39.737Z,76.01
2019-01-16T08:58:56.680Z,75.87
2019-01-16T09:04:15.076Z,75.40
2019-01-16T09:09:35.430Z,75.43
2019-01-16T09:14:57.387Z,75.26
2019-01-16T09:20:16.708Z,75.25
2019-01-16T09:25:54.072Z,75.72
2019-01-16T09:31:17.129Z,75.88
2019-01-16T09:36:31.125Z,76.06
2019-01-16T09:41:51.844Z,76.16
2019-01-16T09:47:11.951Z,76.01
2019-01-16T09:52:24.323Z,76.08
2019-01-16T09:57:47.685Z,76.38
2019-01-16T10:03:21.367Z,76.45
2019-01-16T10:08:32.802Z,76.26
2019-01-16T10:13:46.395Z,75.94
2019-01-16T10:19:01.711Z,75.78
2019-01-16T10:24:30.306Z,75.54
2019-01-16T10:29:45.801Z,75.19
2019-01-16T10:35:08.415Z,74.63
2019-01-16T10:40:27.063Z,74.41
2019-01-16T10:45:54.874Z,74.27
2019-01-16T10:51:15.237Z,74.23
2019-01-16T10:56:37.996Z,74.07
2019-01-16T11:02:03.122Z,73.85
2019-01-16T11:07:14.257Z,73.50
2019-01-16T11:12:51.486Z,73.17
2019-01-16T11:18:13.914Z,73.12
2019-01-16T11:23:38.894Z,73.03
2019-01-16T11:28:59.412Z,72.79
2019-01-16T11:34:23.991Z,72.77
2019-01-16T11:39:43.807Z,72.60
2019-01-16T11:45:01.509Z,72.45
2019-01-16T11:50:26.181Z,72.28
2019-01-16T11:55:47.367Z,72.09
2019-01-16T12:01:07.998Z,71.70
2019-01-16T12:06:22.267Z,71.47
2019-01-16T12:11:41.018Z,71.27
2019-01-16T12:17:01.179Z,70.85
2019-01-16T12:22:17.387Z,70.87
2019-01-16T12:27:37.632Z,70.60
2019-01-16T12:32:58.353Z,70.56
2019-01-16T12:38:18.672Z,70.26
2019-01-16T12:43:30.328Z,70.23
2019-01-16T12:49:01.176Z,70.29
2019-01-16T12:54:21.758Z,70.32
2019-01-16T12:59:39.331Z,70.17
2019-01-16T13:05:00.054Z,70.25
2019-01-16T13:10:27.618Z,70.48
2019-01-16T13:15:47.785Z,70.39
2019-01-16T13:21:08.395Z,70.12
2019-01-16T13:26:24.012Z,70.06
2019-01-16T13:31:44.777Z,70.13
2019-01-16T13:37:01.197Z,70.19
2019-01-16T13:42:20.136Z,70.23
2019-01-16T13:47:40.953Z,70.07
2019-01-16T13:53:03.535Z,70.07
2019-01-16T13:58:21.717Z,70.08
2019-01-16T14:03:49.817Z,70.17
2019-01-16T14:09:00.451Z,70.30
2019-01-16T14:14:23.112Z,70.49
2019-01-16T14:19:48.100Z,70.62
2019-01-16T14:25:13.192Z,70.60
2019-01-16T14:30:33.126Z,70.78
2019-01-16T14:35:45.750Z,70.96
2019-01-16T14:40:57.837Z,71.36
2019-01-16T14:46:26.514Z,71.45
2019-01-16T14:51:41.299Z,71.40
2019-01-16T14:57:02.105Z,71.51
2019-01-16T15:02:16.158Z,71.49
2019-01-16T15:07:43.927Z,71.01
2019-01-16T15:13:04.986Z,71.09
2019-01-16T15:18:36.040Z,70.93
2019-01-16T15:23:48.947Z,70.69
2019-01-16T15:29:13.147Z,70.72
2019-01-16T15:34:28.114Z,70.57
2019-01-16T15:39:49.149Z,70.54
2019-01-16T15:57:07.061Z,70.43
2019-01-16T16:02:24.136Z,70.38
2019-01-16T16:07:52.314Z,70.23
2019-01-16T16:13:08.964Z,70.20
2019-01-16T16:18:25.943Z,70.20
2019-01-16T16:23:50.371Z,70.24
2019-01-16T16:29:23.949Z,70.13
2019-01-16T16:34:54.856Z,70.17
2019-01-16T16:40:17.323Z,70.22
2019-01-16T16:45:38.519Z,70.10
2019-01-16T16:50:49.626Z,70.15
2019-01-16T16:56:17.800Z,70.25
2019-01-16T17:01:35.824Z,69.78
2019-01-16T17:07:03.785Z,69.74
2019-01-16T17:12:25.608Z,69.47
2019-01-16T17:17:38.546Z,69.08
2019-01-16T17:23:18.668Z,68.73
2019-01-16T17:28:42.775Z,68.70
2019-01-16T17:40:39.282Z,68.47
2019-01-16T17:46:09.361Z,68.42
2019-01-16T17:51:58.308Z,68.14
2019-01-16T17:57:59.972Z,67.97
2019-01-16T18:03:32.993Z,67.78
2019-01-16T18:09:22.263Z,67.64
2019-01-16T18:14:56.279Z,67.52
2019-01-16T18:20:40.609Z,67.54
2019-01-16T18:45:49.974Z,66.70
2019-01-16T18:51:15.148Z,66.43
2019-01-16T18:56:55.525Z,66.28
2019-01-16T19:02:15.921Z,66.13
2019-01-16T19:07:45.567Z,66.01
2019-01-16T19:13:11.551Z,65.84
2019-01-16T19:18:22.233Z,65.37
2019-01-16T19:23:42.626Z,65.46
2019-01-16T19:29:29.722Z,65.47
2019-01-16T19:34:54.416Z,65.27
2019-01-16T19:40:12.138Z,65.16
2019-01-16T19:45:46.591Z,65.07
2019-01-16T19:51:08.952Z,65.11
2019-01-16T19:56:21.644Z,64.85
2019-01-16T20:01:44.087Z,64.84
2019-01-16T20:07:04.424Z,64.85
2019-01-16T20:12:18.623Z,64.70
2019-01-16T20:17:39.843Z,64.58
2019-01-16T20:23:18.704Z,64.46
2019-01-16T20:28:53.060Z,64.68
2019-01-16T20:34:03.365Z,64.74
2019-01-16T20:39:42.336Z,64.59
2019-01-16T20:45:03.493Z,64.60
2019-01-16T20:50:19.972Z,64.53
2019-01-16T20:55:53.849Z,64.73
2019-01-16T21:01:14.833Z,64.67
2019-01-16T21:06:37.197Z,64.60
2019-01-16T21:11:57.857Z,64.62
2019-01-16T21:17:09.090Z,64.58
2019-01-16T21:22:29.706Z,64.80
2019-01-16T21:27:45.397Z,64.93
2019-01-16T21:33:10.506Z,64.85
2019-01-16T21:38:17.254Z,65.02
2019-01-16T21:43:42.561Z,65.09
2019-01-16T21:49:00.704Z,65.28
2019-01-16T21:54:16.590Z,65.44
2019-01-16T21:59:42.040Z,65.59
2019-01-16T22:05:06.876Z,65.90
2019-01-16T22:10:24.889Z,66.32
2019-01-16T22:15:37.862Z,66.77
2019-01-16T22:21:11.406Z,66.95
2019-01-16T22:26:36.158Z,67.24
2019-01-16T22:32:01.156Z,67.21
2019-01-16T22:37:38.310Z,67.57
2019-01-16T22:43:15.254Z,67.74
2019-01-16T22:48:46.563Z,67.80
2019-01-16T22:54:08.837Z,68.21
2019-01-16T22:59:38.499Z,68.27
2019-01-16T23:05:00.591Z,68.59
2019-01-16T23:10:26.953Z,68.91
2019-01-16T23:15:49.142Z,68.73
2019-01-16T23:20:58.883Z,68.84
2019-01-16T23:26:25.042Z,69.22
2019-01-16T23:32:02.119Z,69.04
2019-01-16T23:37:23.194Z,69.34
2019-01-16T23:42:35.210Z,69.46
2019-01-16T23:47:56.179Z,69.54
2019-01-16T23:53:16.619Z,69.79
2019-01-16T23:58:41.204Z,69.88
